Terminal Aerodrome Forecast
Issued by NWS Pittsburgh, PA

Current Version | Previous Version | Graphics & Text | Print | Product List | Glossary On
Versions: 1 2 3 4 5 6 7 8 9 10 11 12 13 14 15 16 17 18 19 20 21 22 23 24 25 26 27 28 29 30 31 32 33 34 35
922
FTUS41 KPBZ 171007 AAA
TAFPIT
TAF AMD
KPIT 171007Z 1710/1812 36008KT P6SM OVC025
     FM171200 13003KT P6SM SCT025
     FM172100 VRB05KT 2SM -SN OVC008
     FM180200 25005KT 5SM -SN OVC008
     FM180800 26008KT P6SM OVC010=

USA.gov is the U.S. government's official web portal to all federal, state and local government web resources and services.